Escatawpa, MS

5:22 AM CDT on September 18, 2019 (GMT -0500)
Sawmill Pointe | | Change Station

Elev 43 ft 30.41 °N, 88.54 °W | Updated 19 seconds ago

Fog
Fog
75.7 °F
Feels Like 74 °F
N
0
Wind Variable Wind from SSE
Gusts 0.0 mph

Today
High -- | Low -- °F
--% Chance of Precip.
Yesterday
High -- | Low -- °F
Precip. -- in
Pressure 29.97 in
Visibility 0.2 miles
Clouds
Heat Index 74 °F
Dew Point 75 °F
Humidity 99%
Rainfall 0.00 in
Snow Depth Not available.
6:40 AM 6:56 PM
Waning Gibbous, 84% visible
SPECI KPQL 181003Z AUTO 00000KT 1/4SM FG VV004 22/21 A2997 RMK AO2 T02170206
Pressure 29.97 in
Visibility 0.2 miles
Clouds
Heat Index 74 °F
Dew Point 75 °F
Humidity 99%
Rainfall 0.00 in
Snow Depth Not available.
6:40 AM 6:56 PM
Waning Gibbous, 84% visible
SPECI KPQL 181003Z AUTO 00000KT 1/4SM FG VV004 22/21 A2997 RMK AO2 T02170206

Get Severe Weather Alerts

Thanks for signing up!

Be on the lookout for a verification email in your inbox.

You'll start receiving the daily forecast at 6 AM.

×

10-Day Weather Forecast

Almanac

Astronomy

Sep. 18, 2019 Rise Set
Actual Time
Civil Twilight
Nautical Twilight
Astronomical Twilight
Moon
Length of Visible Light
Length of Day
Tomorrow will be .
, % of the Moon is Illuminated

Today's Extremes

State Highs State Lows

Community

WunderPhotos

Category 6

Welcome to Category 6. This is the collective home for Weather Underground's featured writeups by Dr. Jeff Masters (right), Bob Henson (left), Chris Burt, and other regular contributors.

Nearby

Air Quality

  Air Quality AQ Index Pollutant
Not available.

Snow Depth

Station Depth Elevation

Earthquake Activity

City Distance Mag. Time & Date
Minimum magnitude displayed is 2.5.

Coastal Water Temperatures

Place Temperature

Stations

Nearby Weather Stations

Station Location Temp. Windchill Dew Point Humidity Wind Precip. Elev Updated Type
                   

Watches & Warnings

There are currently no watches in effect.